Time;durP1;ratioP1;P1;durP2;ratioP2;P2;SDS_P1;SDS_P2;PMS_P1;PMS_P2;Temp;Humidity;BMP_temperature;BMP_pressure;BME280_temperature;BME280_humidity;BME280_pressure;Samples;Min_cycle;Max_cycle;Signal;HPM_P1;HPM_P2
2022/10/02 00:02:11;;;;;;;2.00;1.30;;;18.40;57.60;;;;;;5038215;28;20215;-79
2022/10/02 00:04:39;;;;;;;4.07;1.10;;;18.40;57.60;;;;;;5038908;28;20188;-80
2022/10/02 00:07:07;;;;;;;3.95;1.20;;;18.50;57.70;;;;;;5040795;28;20227;-80
2022/10/02 00:09:37;;;;;;;2.67;1.13;;;18.40;57.70;;;;;;5040715;28;20558;-79
2022/10/02 00:12:07;;;;;;;3.03;1.23;;;18.40;57.80;;;;;;5039686;28;20219;-79
2022/10/02 00:14:37;;;;;;;2.10;1.20;;;18.40;57.80;;;;;;5055787;28;20223;-79
2022/10/02 00:17:04;;;;;;;3.08;1.23;;;18.40;57.90;;;;;;5037714;28;20206;-79
2022/10/02 00:19:33;;;;;;;4.15;1.17;;;18.40;57.90;;;;;;5037466;28;20202;-80
2022/10/02 00:22:21;;;;;;;2.28;1.30;;;18.40;57.90;;;;;;5037090;28;20717;-79
2022/10/02 00:24:52;;;;;;;1.92;1.20;;;18.40;57.90;;;;;;5053741;28;20195;-79
2022/10/02 00:27:31;;;;;;;2.67;1.13;;;18.40;57.90;;;;;;5037240;28;20223;-79
2022/10/02 00:29:59;;;;;;;1.80;1.25;;;18.30;57.70;;;;;;5036778;28;20187;-79
2022/10/02 00:32:30;;;;;;;1.48;1.08;;;18.40;57.80;;;;;;5036646;28;20682;-83
2022/10/02 00:35:18;;;;;;;1.40;1.30;;;18.40;57.90;;;;;;5036290;28;20261;-80
2022/10/02 00:37:47;;;;;;;3.33;1.90;;;18.40;57.70;;;;;;5036566;28;20196;-80
2022/10/02 00:40:42;;;;;;;5.65;2.30;;;18.30;57.60;;;;;;5053208;28;20642;-79
2022/10/02 00:43:15;;;;;;;4.63;2.42;;;18.30;57.50;;;;;;5037455;28;20306;-79
2022/10/02 00:46:05;;;;;;;3.53;1.98;;;18.30;58.10;;;;;;5053574;28;20555;-80
2022/10/02 00:48:44;;;;;;;3.65;1.75;;;18.30;57.50;;;;;;5053475;28;20282;-80
2022/10/02 00:51:19;;;;;;;2.95;1.58;;;18.30;57.20;;;;;;5036700;28;20199;-79
2022/10/02 00:53:49;;;;;;;3.05;1.50;;;18.30;57.20;;;;;;5036548;28;20856;-79
2022/10/02 00:56:20;;;;;;;4.78;1.70;;;18.30;57.20;;;;;;5036458;28;20219;-79
2022/10/02 00:59:21;;;;;;;2.90;1.42;;;18.20;57.10;;;;;;5036572;28;20192;-80
2022/10/02 01:01:51;;;;;;;2.35;1.65;;;18.30;57.10;;;;;;5015993;28;20290;-79
2022/10/02 01:04:20;;;;;;;3.05;1.35;;;18.20;57.00;;;;;;5036460;28;20282;-80
2022/10/02 01:06:49;;;;;;;1.73;1.10;;;18.20;57.10;;;;;;5036801;28;20188;-80
2022/10/02 01:09:16;;;;;;;1.50;1.27;;;18.20;57.10;;;;;;5036545;28;20205;-79
2022/10/02 01:11:43;;;;;;;1.80;1.15;;;18.20;57.00;;;;;;5036356;28;20204;-80
2022/10/02 01:14:11;;;;;;;3.63;1.10;;;18.20;57.00;;;;;;5052923;28;20647;-80
2022/10/02 01:16:40;;;;;;;2.35;1.30;;;18.20;57.00;;;;;;5036487;28;20218;-79
2022/10/02 01:19:11;;;;;;;1.45;1.10;;;18.20;57.00;;;;;;5036419;28;20655;-79
2022/10/02 01:21:41;;;;;;;4.53;1.20;;;18.20;56.90;;;;;;5036969;28;20206;-80
2022/10/02 01:24:12;;;;;;;1.30;1.20;;;18.20;57.00;;;;;;5036149;28;20199;-80
2022/10/02 01:26:40;;;;;;;1.30;1.20;;;18.20;57.00;;;;;;5037397;28;20202;-80
2022/10/02 01:29:08;;;;;;;2.13;1.20;;;18.20;57.00;;;;;;5054883;28;20770;-80
2022/10/02 01:31:35;;;;;;;1.55;1.30;;;18.20;56.90;;;;;;5038426;28;20202;-79
2022/10/02 01:34:02;;;;;;;2.38;1.13;;;18.20;56.90;;;;;;5038791;28;20257;-79
2022/10/02 01:36:29;;;;;;;1.15;1.00;;;18.20;56.90;;;;;;5041459;28;20211;-80
2022/10/02 01:38:57;;;;;;;1.45;1.35;;;18.20;56.90;;;;;;5036067;28;20201;-80
2022/10/02 01:41:24;;;;;;;1.35;1.10;;;18.20;56.90;;;;;;5036456;28;20203;-80
2022/10/02 01:43:53;;;;;;;1.90;1.25;;;18.20;56.90;;;;;;5036584;28;20253;-80
2022/10/02 01:46:31;;;;;;;1.20;1.10;;;18.20;56.90;;;;;;5035811;28;20191;-80
2022/10/02 01:49:09;;;;;;;3.65;1.10;;;18.20;57.50;;;;;;5036492;28;20202;-79
2022/10/02 01:51:49;;;;;;;1.05;0.93;;;18.10;56.80;;;;;;5035929;28;20218;-79
2022/10/02 01:54:21;;;;;;;2.70;1.30;;;18.10;56.80;;;;;;5052277;28;20195;-79
2022/10/02 01:56:53;;;;;;;1.30;1.20;;;18.10;56.90;;;;;;5035476;28;20212;-79
2022/10/02 01:59:25;;;;;;;2.20;1.15;;;18.10;56.90;;;;;;5035448;28;20195;-79
2022/10/02 02:01:56;;;;;;;2.17;1.20;;;18.10;56.80;;;;;;5035473;28;20222;-79
2022/10/02 02:04:25;;;;;;;1.77;1.20;;;18.10;57.50;;;;;;5052083;28;20203;-79
2022/10/02 02:06:56;;;;;;;1.70;1.20;;;18.10;56.90;;;;;;5036364;28;20550;-80
2022/10/02 02:09:29;;;;;;;1.85;1.10;;;18.10;56.90;;;;;;5035795;28;20195;-79
2022/10/02 02:11:58;;;;;;;1.63;1.23;;;18.10;56.80;;;;;;5036455;28;20227;-79
2022/10/02 02:14:28;;;;;;;2.00;1.10;;;18.10;56.80;;;;;;5052075;28;20727;-79
2022/10/02 02:16:56;;;;;;;2.55;1.20;;;18.10;56.80;;;;;;5035345;28;20290;-79
2022/10/02 02:19:25;;;;;;;2.15;1.33;;;18.10;56.80;;;;;;5051913;28;20204;-79
2022/10/02 02:21:55;;;;;;;1.67;1.27;;;18.10;56.90;;;;;;5035263;28;20577;-79
2022/10/02 02:24:24;;;;;;;1.77;1.30;;;18.10;56.90;;;;;;5036980;28;20219;-79
2022/10/02 02:26:51;;;;;;;1.40;1.30;;;18.10;56.90;;;;;;5058504;28;20648;-79
2022/10/02 02:29:19;;;;;;;1.20;1.20;;;18.10;56.90;;;;;;5056906;28;20644;-79
2022/10/02 02:31:48;;;;;;;1.33;1.20;;;18.10;56.90;;;;;;5040339;28;20237;-79
2022/10/02 02:34:17;;;;;;;1.20;1.10;;;18.10;56.90;;;;;;5039552;28;20647;-79
2022/10/02 02:36:45;;;;;;;3.47;1.27;;;18.10;56.90;;;;;;5047067;28;20679;-79
2022/10/02 02:39:14;;;;;;;1.70;1.20;;;18.10;56.80;;;;;;5039068;28;20663;-79
2022/10/02 02:41:42;;;;;;;1.48;1.20;;;18.10;56.80;;;;;;5038810;28;20618;-79
2022/10/02 02:44:12;;;;;;;1.30;1.13;;;18.10;56.80;;;;;;5038819;28;20203;-79
2022/10/02 02:49:24;;;;;;;1.40;1.00;;;18.10;56.80;;;;;;5037633;28;20219;-79
2022/10/02 02:51:51;;;;;;;1.02;0.93;;;18.10;56.90;;;;;;5038551;28;20337;-79
2022/10/02 02:54:24;;;;;;;1.27;1.10;;;18.10;56.80;;;;;;5055207;28;20615;-80
2022/10/02 02:57:11;;;;;;;1.67;1.17;;;18.10;56.80;;;;;;5056422;28;20234;-80
2022/10/02 02:59:38;;;;;;;1.27;1.00;;;18.10;56.80;;;;;;5038715;28;20225;-79
2022/10/02 03:02:05;;;;;;;1.30;1.20;;;18.10;56.90;;;;;;5039659;28;20309;-79
2022/10/02 03:04:33;;;;;;;1.85;1.10;;;18.10;56.90;;;;;;5042300;28;20656;-79
2022/10/02 03:07:01;;;;;;;1.63;1.08;;;18.10;56.90;;;;;;5039452;28;20290;-79
2022/10/02 03:09:29;;;;;;;2.33;1.08;;;18.10;57.00;;;;;;5054804;28;20196;-79
2022/10/02 03:12:02;;;;;;;1.17;1.08;;;18.10;56.90;;;;;;5056141;28;20298;-78
2022/10/02 03:14:43;;;;;;;1.42;1.08;;;18.10;56.90;;;;;;5038339;28;20238;-78
2022/10/02 03:17:16;;;;;;;1.10;1.00;;;18.10;56.90;;;;;;5038216;28;20772;-78
2022/10/02 03:19:46;;;;;;;1.10;1.00;;;18.10;57.00;;;;;;5039245;28;20199;-78
2022/10/02 03:22:17;;;;;;;1.48;0.98;;;18.10;57.10;;;;;;5038160;28;20219;-79
2022/10/02 03:24:47;;;;;;;1.10;1.00;;;18.10;56.80;;;;;;5038399;28;20566;-79
2022/10/02 03:27:17;;;;;;;1.67;1.10;;;18.10;56.90;;;;;;5038367;28;20180;-79
2022/10/02 03:29:47;;;;;;;1.20;1.00;;;18.10;56.80;;;;;;5037897;28;20244;-79
2022/10/02 03:32:14;;;;;;;1.40;1.00;;;18.20;56.80;;;;;;5055146;28;20766;-78
2022/10/02 03:34:41;;;;;;;1.17;0.90;;;18.30;56.50;;;;;;5054186;28;20213;-78
2022/10/02 03:37:10;;;;;;;2.13;1.10;;;18.30;56.40;;;;;;5037608;28;20337;-78
2022/10/02 03:39:40;;;;;;;1.35;0.95;;;18.40;56.00;;;;;;5037467;28;20203;-78
2022/10/02 03:42:09;;;;;;;2.13;0.95;;;18.50;56.00;;;;;;5037693;28;20261;-78
2022/10/02 03:44:36;;;;;;;1.17;1.05;;;18.50;55.70;;;;;;5037485;28;20616;-78
2022/10/02 03:47:03;;;;;;;1.10;1.00;;;18.60;55.70;;;;;;5037418;28;20191;-78
2022/10/02 03:49:31;;;;;;;1.27;1.17;;;18.60;55.60;;;;;;5037385;28;20199;-78
2022/10/02 03:51:58;;;;;;;0.88;0.88;;;18.70;55.50;;;;;;5037331;28;20694;-78
2022/10/02 03:54:27;;;;;;;1.65;0.95;;;18.70;55.30;;;;;;5037289;28;20282;-78
2022/10/02 03:56:55;;;;;;;1.45;0.85;;;18.80;55.30;;;;;;5037583;28;20634;-79
2022/10/02 03:59:31;;;;;;;0.80;0.80;;;18.80;55.10;;;;;;5038003;28;20200;-79
2022/10/02 04:01:58;;;;;;;1.88;0.90;;;18.80;55.10;;;;;;5038317;28;20275;-79
2022/10/02 04:04:27;;;;;;;2.00;1.30;;;18.80;55.10;;;;;;5054944;28;20278;-79
2022/10/02 04:06:56;;;;;;;1.67;1.08;;;18.80;55.00;;;;;;5037322;28;20245;-79
2022/10/02 04:09:27;;;;;;;1.40;0.93;;;18.90;55.00;;;;;;5037234;28;20663;-79
2022/10/02 04:11:57;;;;;;;1.00;1.00;;;18.90;54.90;;;;;;5055644;28;20219;-79
2022/10/02 04:14:27;;;;;;;1.00;0.90;;;18.90;54.80;;;;;;5037318;28;20659;-79
2022/10/02 04:16:57;;;;;;;1.52;1.00;;;18.90;55.00;;;;;;5037101;28;20219;-79
2022/10/02 04:19:26;;;;;;;0.85;0.80;;;18.90;54.90;;;;;;5037362;28;20674;-80
2022/10/02 04:21:55;;;;;;;1.00;0.90;;;18.90;54.80;;;;;;5037207;28;20232;-79
2022/10/02 04:24:28;;;;;;;1.45;1.00;;;18.90;54.90;;;;;;5037063;28;20223;-79
2022/10/02 04:27:01;;;;;;;1.35;0.95;;;18.90;54.80;;;;;;5037330;28;20196;-79
2022/10/02 04:29:31;;;;;;;0.95;0.95;;;19.00;55.00;;;;;;5055010;28;20623;-79
2022/10/02 04:32:01;;;;;;;0.95;0.95;;;18.90;55.00;;;;;;5037478;28;20333;-79
2022/10/02 04:34:28;;;;;;;1.40;1.17;;;18.90;54.90;;;;;;5053953;28;20191;-79
2022/10/02 04:37:04;;;;;;;1.00;0.80;;;18.90;55.60;;;;;;5037637;28;20219;-79
2022/10/02 04:39:41;;;;;;;1.08;0.98;;;18.90;55.00;;;;;;5036803;28;20253;-79
2022/10/02 04:42:26;;;;;;;1.17;1.05;;;18.80;55.10;;;;;;5036608;28;20215;-79
2022/10/02 04:45:04;;;;;;;1.30;1.17;;;18.90;55.30;;;;;;5036990;28;20705;-78
2022/10/02 04:47:39;;;;;;;1.20;1.10;;;18.80;55.30;;;;;;5037274;28;20189;-79
2022/10/02 04:50:16;;;;;;;1.25;1.10;;;18.70;55.40;;;;;;5038822;28;20222;-79
2022/10/02 04:53:02;;;;;;;1.67;1.02;;;18.70;55.50;;;;;;5037223;28;20571;-79
2022/10/02 04:55:38;;;;;;;1.13;1.00;;;18.70;55.60;;;;;;5054121;28;20230;-79
2022/10/02 04:58:24;;;;;;;1.30;1.00;;;18.60;55.60;;;;;;5053745;28;20274;-80
2022/10/02 05:00:57;;;;;;;0.75;0.75;;;18.60;55.60;;;;;;5016702;28;20199;-80
2022/10/02 05:03:32;;;;;;;1.75;0.90;;;18.60;55.70;;;;;;5037916;28;20227;-80
2022/10/02 05:06:11;;;;;;;1.10;1.00;;;18.50;55.80;;;;;;5036311;28;20191;-80
2022/10/02 05:08:49;;;;;;;2.70;1.10;;;18.50;55.80;;;;;;5054226;28;20184;-80
2022/10/02 05:11:27;;;;;;;1.10;1.00;;;18.50;55.90;;;;;;5053739;28;20234;-80
2022/10/02 05:14:12;;;;;;;1.73;0.90;;;18.50;56.10;;;;;;5036975;28;20215;-79
2022/10/02 05:17:03;;;;;;;2.72;1.02;;;18.50;56.10;;;;;;5036068;28;20576;-79
2022/10/02 05:19:45;;;;;;;0.90;0.90;;;18.50;56.20;;;;;;5052742;28;20236;-79
2022/10/02 05:22:23;;;;;;;1.20;1.10;;;18.50;56.20;;;;;;5036001;28;20273;-79
2022/10/02 05:24:56;;;;;;;1.15;0.90;;;18.40;56.20;;;;;;5036268;28;20198;-79
2022/10/02 05:27:33;;;;;;;1.20;1.10;;;18.40;56.20;;;;;;5053027;28;20183;-79
2022/10/02 05:30:07;;;;;;;1.70;0.93;;;18.40;56.20;;;;;;5036102;28;20238;-79
2022/10/02 05:33:03;;;;;;;1.00;1.00;;;18.40;56.30;;;;;;5052461;28;20226;-79
2022/10/02 05:35:44;;;;;;;0.85;0.85;;;18.40;56.30;;;;;;5035777;28;20203;-79
2022/10/02 05:38:18;;;;;;;0.93;0.82;;;18.40;56.30;;;;;;5036413;28;20523;-79
2022/10/02 05:40:48;;;;;;;2.67;1.10;;;18.40;56.30;;;;;;5035515;28;20192;-79
2022/10/02 05:43:20;;;;;;;1.25;1.15;;;18.40;56.30;;;;;;5035868;28;20221;-79
2022/10/02 05:45:50;;;;;;;1.42;1.10;;;18.40;56.40;;;;;;5035722;28;20317;-79
2022/10/02 05:48:21;;;;;;;1.60;1.10;;;18.30;56.30;;;;;;5036365;28;20237;-79
2022/10/02 05:50:50;;;;;;;2.17;0.93;;;18.40;56.40;;;;;;5053126;28;20199;-79
2022/10/02 05:53:22;;;;;;;1.05;0.98;;;18.40;56.40;;;;;;5036811;28;20215;-79
2022/10/02 05:55:52;;;;;;;0.88;0.88;;;18.30;56.40;;;;;;5036164;28;20199;-79
2022/10/02 05:58:25;;;;;;;0.95;0.90;;;18.30;56.30;;;;;;5037723;28;20662;-79
2022/10/02 06:00:54;;;;;;;1.00;0.90;;;18.30;56.40;;;;;;5040269;28;20246;-79
2022/10/02 06:03:25;;;;;;;0.70;0.70;;;18.30;56.40;;;;;;5040098;28;20223;-79
2022/10/02 06:05:56;;;;;;;1.70;0.93;;;18.30;56.40;;;;;;5040137;28;20219;-79
2022/10/02 06:08:30;;;;;;;1.83;1.30;;;18.30;56.50;;;;;;5039721;28;20282;-79
2022/10/02 06:11:00;;;;;;;2.15;1.25;;;18.30;56.40;;;;;;5039321;28;20198;-79
2022/10/02 06:13:30;;;;;;;1.63;1.20;;;18.30;56.40;;;;;;5039108;28;20247;-79
2022/10/02 06:16:03;;;;;;;1.05;1.00;;;18.30;56.40;;;;;;5039376;28;20203;-79
2022/10/02 06:18:31;;;;;;;2.15;1.00;;;18.30;56.40;;;;;;5056099;28;20671;-80
2022/10/02 06:21:01;;;;;;;1.40;1.17;;;18.30;56.40;;;;;;5040827;28;20712;-80
2022/10/02 06:23:35;;;;;;;1.20;1.00;;;18.30;56.40;;;;;;5039970;28;20318;-80
2022/10/02 06:26:09;;;;;;;1.00;1.00;;;18.30;56.50;;;;;;5039338;28;20188;-80
2022/10/02 06:28:38;;;;;;;1.10;1.02;;;18.40;56.60;;;;;;5039829;28;20184;-80
2022/10/02 06:31:10;;;;;;;2.08;0.90;;;18.30;56.40;;;;;;5039504;28;20210;-80
2022/10/02 06:33:37;;;;;;;1.75;1.20;;;18.30;56.50;;;;;;5039183;28;20318;-80
2022/10/02 06:36:29;;;;;;;1.00;0.90;;;18.30;56.40;;;;;;5039245;28;20195;-80
2022/10/02 06:39:15;;;;;;;1.20;1.00;;;18.40;56.40;;;;;;5039837;28;20205;-80
2022/10/02 06:41:46;;;;;;;1.30;1.20;;;18.30;56.40;;;;;;5039091;28;20191;-80
2022/10/02 06:44:20;;;;;;;1.40;1.23;;;18.40;56.40;;;;;;5055754;28;20203;-79
2022/10/02 06:46:51;;;;;;;24.58;16.95;;;18.40;56.50;;;;;;5038595;28;20195;-80
2022/10/02 06:49:25;;;;;;;3.53;2.22;;;18.30;56.40;;;;;;5038516;28;20207;-80
2022/10/02 06:51:59;;;;;;;21.35;14.40;;;18.40;56.50;;;;;;5039321;28;20250;-79
2022/10/02 06:54:51;;;;;;;13.68;9.27;;;18.30;56.30;;;;;;5038563;28;20208;-79
2022/10/02 06:57:32;;;;;;;3.72;3.20;;;18.40;56.50;;;;;;5055008;28;20207;-80
2022/10/02 07:00:09;;;;;;;3.45;2.50;;;18.40;56.60;;;;;;5038315;28;20203;-80
2022/10/02 07:02:56;;;;;;;3.28;2.47;;;18.40;56.50;;;;;;5038497;28;20280;-80
2022/10/02 07:05:39;;;;;;;2.22;1.95;;;18.40;56.50;;;;;;5039368;28;20659;-80
2022/10/02 07:08:10;;;;;;;2.60;2.08;;;18.40;56.60;;;;;;5043275;28;20249;-81
2022/10/02 07:10:40;;;;;;;3.55;2.53;;;18.40;56.50;;;;;;5076628;28;20324;-81
2022/10/02 07:13:21;;;;;;;2.65;1.95;;;18.40;56.40;;;;;;5056278;28;20281;-81
2022/10/02 07:16:08;;;;;;;2.85;1.85;;;18.30;56.40;;;;;;5038620;28;20222;-81
2022/10/02 07:18:42;;;;;;;3.15;2.25;;;18.40;56.40;;;;;;5040138;28;20265;-81
2022/10/02 07:21:12;;;;;;;5.07;2.20;;;18.40;56.40;;;;;;5056698;28;20179;-81
2022/10/02 07:23:46;;;;;;;2.20;1.90;;;18.40;56.40;;;;;;5038667;28;20251;-81
2022/10/02 07:26:28;;;;;;;2.42;2.00;;;18.40;56.40;;;;;;5040395;28;20229;-80
2022/10/02 07:28:59;;;;;;;1.98;1.80;;;18.40;56.50;;;;;;5039046;28;20203;-81
2022/10/02 07:31:35;;;;;;;2.35;1.58;;;18.40;56.60;;;;;;5055548;28;20188;-81
2022/10/02 07:34:11;;;;;;;2.85;1.67;;;18.40;56.60;;;;;;5038147;28;20230;-80
2022/10/02 07:36:44;;;;;;;3.75;1.90;;;18.40;56.40;;;;;;5038301;28;20675;-80
2022/10/02 07:39:18;;;;;;;2.10;1.90;;;18.40;56.70;;;;;;5038238;28;20191;-81
2022/10/02 07:42:12;;;;;;;1.77;1.67;;;18.30;56.60;;;;;;5037648;28;20214;-81
2022/10/02 07:44:52;;;;;;;1.85;1.67;;;18.40;56.40;;;;;;5037655;28;20227;-81
2022/10/02 07:47:30;;;;;;;1.90;1.70;;;18.40;56.40;;;;;;5037469;28;20635;-81
2022/10/02 07:50:00;;;;;;;1.70;1.48;;;18.40;56.30;;;;;;5037491;28;20252;-79
2022/10/02 07:52:34;;;;;;;1.50;1.40;;;18.40;56.20;;;;;;5037382;28;20223;-79
2022/10/02 07:55:10;;;;;;;1.98;1.38;;;18.50;56.20;;;;;;5037396;28;20207;-79
2022/10/02 07:57:41;;;;;;;2.67;1.60;;;18.50;56.20;;;;;;5037049;28;20211;-80
2022/10/02 08:00:12;;;;;;;1.83;1.60;;;18.50;56.20;;;;;;5037323;28;20200;-80
2022/10/02 08:02:45;;;;;;;1.77;1.45;;;18.50;56.00;;;;;;5037069;28;20227;-80
2022/10/02 08:05:18;;;;;;;2.00;1.50;;;18.50;56.10;;;;;;5054254;28;20184;-80
2022/10/02 08:07:49;;;;;;;1.67;1.58;;;18.50;56.20;;;;;;5037236;28;20196;-80
2022/10/02 08:10:20;;;;;;;2.20;1.50;;;18.50;56.20;;;;;;5037301;28;20214;-80
2022/10/02 08:12:50;;;;;;;1.52;1.40;;;18.50;56.20;;;;;;5054533;28;20222;-80
2022/10/02 08:15:19;;;;;;;1.63;1.52;;;18.50;56.00;;;;;;5042342;28;20259;-79
2022/10/02 08:17:49;;;;;;;1.70;1.60;;;18.50;56.10;;;;;;5037303;28;20250;-79
2022/10/02 08:20:21;;;;;;;2.35;1.88;;;18.60;56.30;;;;;;5038679;28;20192;-80
2022/10/02 08:22:50;;;;;;;2.42;1.45;;;18.50;56.20;;;;;;5053978;28;20219;-80
2022/10/02 08:25:20;;;;;;;1.75;1.40;;;18.50;56.20;;;;;;5037420;28;20754;-80
2022/10/02 08:27:50;;;;;;;1.67;1.38;;;18.60;56.30;;;;;;5037758;28;20192;-80
2022/10/02 08:30:17;;;;;;;1.92;1.70;;;18.60;56.30;;;;;;5054642;28;20196;-80
2022/10/02 08:32:46;;;;;;;1.73;1.60;;;18.60;56.30;;;;;;5036971;28;20741;-80
2022/10/02 08:35:16;;;;;;;2.83;1.48;;;18.60;56.30;;;;;;5036447;28;20222;-80
2022/10/02 08:37:50;;;;;;;2.03;1.55;;;18.60;56.30;;;;;;5037287;28;20223;-80
2022/10/02 08:40:54;;;;;;;2.72;1.50;;;18.70;56.40;;;;;;5036712;28;20192;-80
2022/10/02 08:43:55;;;;;;;2.05;1.40;;;18.60;56.30;;;;;;5016717;28;20223;-80
2022/10/02 08:46:46;;;;;;;2.13;1.73;;;18.70;56.20;;;;;;5033753;28;20222;-80
2022/10/02 08:49:38;;;;;;;1.95;1.50;;;18.70;56.10;;;;;;5035987;28;20219;-80
2022/10/02 08:52:36;;;;;;;2.28;1.30;;;18.70;56.00;;;;;;5036067;28;20281;-80
2022/10/02 08:55:36;;;;;;;2.95;1.40;;;18.80;56.10;;;;;;5035966;28;20227;-81
2022/10/02 08:58:27;;;;;;;2.55;1.50;;;18.80;55.70;;;;;;5036079;28;20226;-80
2022/10/02 09:00:58;;;;;;;2.90;1.90;;;19.00;55.80;;;;;;5036676;28;20199;-80
2022/10/02 09:03:59;;;;;;;1.50;1.33;;;19.00;55.50;;;;;;5037209;28;20226;-80
2022/10/02 09:06:44;;;;;;;2.67;1.90;;;19.00;55.10;;;;;;5017522;28;20199;-80
2022/10/02 09:09:40;;;;;;;2.45;1.85;;;19.10;55.10;;;;;;5038005;28;20206;-80
2022/10/02 09:12:36;;;;;;;1.63;1.52;;;19.10;55.00;;;;;;4997228;28;20220;-79
2022/10/02 09:15:12;;;;;;;3.33;1.40;;;19.20;55.20;;;;;;5037439;28;20204;-80
2022/10/02 09:17:44;;;;;;;3.00;1.45;;;19.20;55.10;;;;;;5055472;28;20214;-80
2022/10/02 09:20:40;;;;;;;2.45;1.60;;;19.20;55.00;;;;;;5036945;28;20277;-80
2022/10/02 09:23:28;;;;;;;1.52;1.30;;;19.20;54.90;;;;;;5037297;28;20632;-80
2022/10/02 09:26:00;;;;;;;1.98;1.50;;;19.20;55.50;;;;;;5054468;28;20188;-80
2022/10/02 09:28:56;;;;;;;2.88;1.40;;;19.20;54.80;;;;;;5037250;28;20215;-80
2022/10/02 09:31:48;;;;;;;2.88;1.63;;;19.20;54.80;;;;;;5032089;28;20206;-80
2022/10/02 09:34:38;;;;;;;3.08;1.92;;;19.20;54.80;;;;;;5038466;28;20192;-80
2022/10/02 09:37:28;;;;;;;18.88;11.18;;;19.30;54.60;;;;;;5038578;28;20636;-80
2022/10/02 09:40:31;;;;;;;5.72;3.80;;;19.40;54.40;;;;;;5037989;28;20191;-80
2022/10/02 09:43:42;;;;;;;2.10;1.80;;;19.50;54.30;;;;;;5036880;28;20215;-80
2022/10/02 09:46:34;;;;;;;1.98;1.65;;;19.50;54.30;;;;;;5014564;28;20359;-81
2022/10/02 09:49:15;;;;;;;1.60;1.50;;;19.60;54.40;;;;;;5036923;28;20204;-80
2022/10/02 09:52:03;;;;;;;8.65;7.60;;;19.60;54.40;;;;;;5037863;28;20566;-80
2022/10/02 09:55:12;;;;;;;3.28;2.55;;;19.60;54.20;;;;;;5037939;28;20202;-81
2022/10/02 09:58:19;;;;;;;5.00;2.15;;;19.60;54.40;;;;;;5023738;28;20234;-81
2022/10/02 10:01:20;;;;;;;5.00;2.17;;;19.50;54.40;;;;;;5055144;28;20210;-81
2022/10/02 10:04:15;;;;;;;2.40;1.70;;;19.50;54.60;;;;;;5013423;28;20253;-81
2022/10/02 10:07:11;;;;;;;5.53;1.40;;;19.50;54.40;;;;;;5036159;28;20199;-82
2022/10/02 10:10:11;;;;;;;3.42;1.80;;;19.60;54.20;;;;;;5034834;28;20265;-82
2022/10/02 10:13:16;;;;;;;4.22;2.30;;;19.60;54.90;;;;;;5036199;28;20318;-81
2022/10/02 10:16:18;;;;;;;3.95;1.88;;;19.60;55.00;;;;;;5035052;28;20454;-82
2022/10/02 10:19:31;;;;;;;4.07;1.85;;;19.60;55.20;;;;;;5035746;28;20211;-82
2022/10/02 10:22:41;;;;;;;4.53;1.70;;;19.70;54.90;;;;;;5035325;28;20215;-81
2022/10/02 10:25:41;;;;;;;185.68;103.70;;;19.70;55.00;;;;;;4995278;28;20222;-83
2022/10/02 10:28:33;;;;;;;52.58;39.00;;;19.70;56.10;;;;;;4988712;28;20197;-83
2022/10/02 10:31:34;;;;;;;304.55;250.52;;;19.70;56.00;;;;;;5029109;28;20203;-83
2022/10/02 10:34:35;;;;;;;181.60;143.20;;;19.70;57.70;;;;;;5035553;28;20196;-82
2022/10/02 10:40:22;;;;;;;192.23;145.85;;;19.80;58.10;;;;;;5036494;28;20212;-82
2022/10/02 10:43:03;;;;;;;189.02;147.55;;;19.90;58.00;;;;;;5035633;28;20222;-82
2022/10/02 10:45:38;;;;;;;214.63;165.18;;;19.90;57.60;;;;;;5037809;28;20206;-82
2022/10/02 10:48:26;;;;;;;194.18;148.73;;;19.90;57.80;;;;;;5039267;28;20269;-82
2022/10/02 10:51:02;;;;;;;197.68;152.57;;;19.90;57.60;;;;;;5038751;28;20583;-81
2022/10/02 10:54:02;;;;;;;224.95;178.32;;;19.90;57.20;;;;;;5038877;28;20659;-82
2022/10/02 10:56:35;;;;;;;199.93;159.55;;;19.90;57.00;;;;;;5005155;28;20206;-82
2022/10/02 10:59:30;;;;;;;201.30;162.80;;;20.00;57.00;;;;;;5038816;28;20212;-82
2022/10/02 11:02:12;;;;;;;180.60;144.40;;;20.00;57.00;;;;;;5039303;28;20219;-82
2022/10/02 11:04:52;;;;;;;169.10;135.95;;;20.00;57.00;;;;;;5039977;28;20191;-82
2022/10/02 11:07:33;;;;;;;170.35;136.05;;;20.00;57.20;;;;;;5039209;28;20583;-83
2022/10/02 11:10:14;;;;;;;171.30;129.90;;;20.00;57.00;;;;;;5043366;28;20203;-82
2022/10/02 11:12:57;;;;;;;218.25;174.07;;;20.00;57.10;;;;;;5042329;28;20315;-82
2022/10/02 11:15:39;;;;;;;199.60;160.32;;;20.00;57.10;;;;;;5040211;28;20596;-81
2022/10/02 11:18:18;;;;;;;191.63;155.55;;;20.00;57.40;;;;;;5038743;28;20585;-82
2022/10/02 11:21:17;;;;;;;167.38;134.07;;;20.00;57.40;;;;;;5038438;28;20294;-83
2022/10/02 11:24:04;;;;;;;170.48;139.23;;;20.00;57.60;;;;;;5038220;28;20229;-82
2022/10/02 11:26:43;;;;;;;162.25;128.93;;;20.00;56.80;;;;;;5038341;28;20256;-81
2022/10/02 11:29:33;;;;;;;153.98;129.55;;;20.00;57.10;;;;;;5057306;28;20194;-82
2022/10/02 11:32:15;;;;;;;136.13;111.82;;;20.00;57.20;;;;;;5037431;28;20219;-81
2022/10/02 11:35:07;;;;;;;134.48;111.60;;;20.00;57.30;;;;;;5038620;28;20249;-81
2022/10/02 11:37:52;;;;;;;152.98;123.90;;;20.00;57.20;;;;;;5036888;28;20199;-81
2022/10/02 11:40:51;;;;;;;132.85;110.63;;;20.00;57.30;;;;;;5038868;28;20241;-82
2022/10/02 11:43:38;;;;;;;132.00;109.85;;;19.90;57.20;;;;;;5038573;28;20531;-82
2022/10/02 11:46:18;;;;;;;109.93;87.97;;;19.90;57.10;;;;;;5039479;28;20295;-81
2022/10/02 11:48:56;;;;;;;130.65;109.30;;;20.00;57.20;;;;;;5046061;28;20203;-81
2022/10/02 11:51:39;;;;;;;124.38;107.32;;;20.00;57.10;;;;;;5043070;28;20193;-82
2022/10/02 11:54:19;;;;;;;119.70;99.55;;;20.00;57.10;;;;;;5047323;28;20195;-82
2022/10/02 11:57:00;;;;;;;111.22;85.60;;;20.00;57.40;;;;;;5038107;28;20373;-81
2022/10/02 11:59:39;;;;;;;119.25;94.00;;;19.90;57.70;;;;;;5038520;28;20211;-81
2022/10/02 12:02:09;;;;;;;113.10;91.15;;;19.90;57.70;;;;;;5040336;28;20222;-81
2022/10/02 12:04:40;;;;;;;130.20;106.32;;;19.90;57.50;;;;;;5038459;28;20199;-81
2022/10/02 12:07:18;;;;;;;95.28;77.75;;;19.90;57.50;;;;;;5040056;28;20191;-81
2022/10/02 12:09:53;;;;;;;90.10;74.57;;;19.90;57.60;;;;;;5040637;28;20551;-80
2022/10/02 12:12:30;;;;;;;91.25;77.93;;;19.90;57.80;;;;;;5039297;28;20740;-80
2022/10/02 12:14:59;;;;;;;98.88;79.50;;;19.90;57.70;;;;;;5038374;28;20195;-81
2022/10/02 12:17:55;;;;;;;98.32;81.45;;;19.90;57.60;;;;;;5056049;28;20222;-81
2022/10/02 12:28:55;;;;;;;91.32;74.53;;;19.90;57.10;;;;;;5037341;28;20219;-82
2022/10/02 12:31:24;;;;;;;78.47;64.72;;;20.00;56.80;;;;;;5036950;28;20191;-81
2022/10/02 12:33:54;;;;;;;77.07;65.28;;;20.00;56.60;;;;;;5036955;28;20222;-81
2022/10/02 12:36:31;;;;;;;72.70;56.63;;;20.00;56.80;;;;;;5037134;28;20663;-82
2022/10/02 12:39:04;;;;;;;79.18;62.60;;;20.00;56.70;;;;;;5037250;28;20215;-80
2022/10/02 12:41:41;;;;;;;72.07;59.78;;;20.10;56.80;;;;;;5036928;28;20203;-81
2022/10/02 12:44:43;;;;;;;64.05;53.70;;;20.00;56.60;;;;;;5036756;28;20195;-81
2022/10/02 12:47:34;;;;;;;73.82;57.15;;;20.10;56.20;;;;;;5055951;28;20186;-81
2022/10/02 12:50:08;;;;;;;73.50;61.85;;;20.10;56.50;;;;;;5036830;28;20187;-80
2022/10/02 12:53:12;;;;;;;69.20;58.28;;;20.10;56.60;;;;;;5037060;28;20344;-80
2022/10/02 12:56:00;;;;;;;61.78;51.22;;;20.10;56.80;;;;;;5054667;28;20286;-82
2022/10/02 12:58:31;;;;;;;70.55;57.63;;;20.10;56.80;;;;;;5036940;28;20257;-81
2022/10/02 13:01:43;;;;;;;60.38;48.13;;;20.10;56.80;;;;;;5037313;28;20195;-80
2022/10/02 13:04:48;;;;;;;58.65;48.95;;;20.10;56.70;;;;;;4958359;28;20202;-80
2022/10/02 13:07:30;;;;;;;58.42;48.53;;;20.10;56.50;;;;;;4959582;28;20202;-81
2022/10/02 13:09:59;;;;;;;56.80;47.10;;;20.10;56.80;;;;;;5024636;28;20265;-82
2022/10/02 13:12:42;;;;;;;58.05;49.10;;;20.20;56.80;;;;;;5039139;28;20219;-82
2022/10/02 13:15:34;;;;;;;54.00;46.63;;;20.10;56.80;;;;;;5038450;28;20249;-82
2022/10/02 13:18:08;;;;;;;51.20;43.88;;;20.10;56.70;;;;;;5036862;28;20647;-81
2022/10/02 13:20:38;;;;;;;58.30;46.67;;;20.10;56.80;;;;;;5036854;28;20183;-81
2022/10/02 13:23:16;;;;;;;50.58;43.08;;;20.10;56.80;;;;;;5036670;28;20770;-80
2022/10/02 13:25:56;;;;;;;47.95;37.90;;;20.10;56.90;;;;;;5037703;28;20554;-80
2022/10/02 13:28:48;;;;;;;54.33;43.30;;;20.10;56.50;;;;;;5038365;28;20195;-80
2022/10/02 13:31:19;;;;;;;45.05;36.42;;;20.10;56.40;;;;;;5037508;28;20278;-80
2022/10/02 13:34:06;;;;;;;40.35;30.40;;;20.10;56.30;;;;;;5038596;28;20251;-80
2022/10/02 13:36:40;;;;;;;37.47;29.58;;;20.10;56.40;;;;;;5038428;28;20262;-81
2022/10/02 13:39:15;;;;;;;39.53;31.05;;;20.10;56.40;;;;;;5038969;28;20231;-80
2022/10/02 13:42:00;;;;;;;32.42;25.52;;;20.10;56.40;;;;;;5039240;28;20191;-80
2022/10/02 13:44:32;;;;;;;40.15;31.40;;;20.10;56.20;;;;;;5039228;28;20191;-80
2022/10/02 13:47:21;;;;;;;31.25;25.17;;;20.20;56.40;;;;;;5038682;28;20225;-81
2022/10/02 13:49:59;;;;;;;34.50;28.90;;;20.10;56.40;;;;;;5037129;28;20290;-79